createdAt,value
2023-04-01T00:01:23.509Z,98964.94
2023-04-01T00:03:50.167Z,98962.97
2023-04-01T00:06:18.807Z,98957.72
2023-04-01T00:08:47.288Z,98967.75
2023-04-01T00:11:14.664Z,98965.06
2023-04-01T00:13:41.460Z,98966.72
2023-04-01T00:16:19.885Z,98972.66
2023-04-01T00:18:50.840Z,98975.94
2023-04-01T00:21:18.375Z,98973.81
2023-04-01T00:23:44.925Z,98975.34
2023-04-01T00:26:12.897Z,98971.25
2023-04-01T00:28:39.822Z,98976.97
2023-04-01T00:31:08.105Z,98980.72
2023-04-01T00:33:34.665Z,98982.25
2023-04-01T00:36:30.605Z,98976.53
2023-04-01T00:39:00.049Z,98977.59
2023-04-01T00:41:27.077Z,98985.41
2023-04-01T00:43:53.917Z,98980.63
2023-04-01T00:46:21.885Z,98978.66
2023-04-01T00:48:54.370Z,98980.53
2023-04-01T00:51:28.616Z,98981.34
2023-04-01T00:53:58.398Z,98988.34
2023-04-01T00:56:52.266Z,98986.94
2023-04-01T00:59:25.917Z,98984.75
2023-04-01T01:01:52.514Z,98984.75
2023-04-01T01:04:37.658Z,98989.97
2023-04-01T01:07:31.953Z,98993.03
2023-04-01T01:10:09.156Z,98991.50
2023-04-01T01:12:45.729Z,98991.50
2023-04-01T01:15:27.229Z,98998.53
2023-04-01T01:18:15.325Z,98998.28
2023-04-01T01:21:03.466Z,98998.53
2023-04-01T01:23:48.242Z,99004.94
2023-04-01T01:26:34.996Z,98994.19
2023-04-01T01:29:28.241Z,99003.44
2023-04-01T01:32:06.824Z,98999.91
2023-04-01T01:34:51.352Z,99002.84
2023-04-01T01:37:21.866Z,99001.69
2023-04-01T01:39:59.608Z,99004.94
2023-04-01T01:42:28.102Z,99007.63
2023-04-01T01:44:57.970Z,99016.19
2023-04-01T01:47:26.315Z,99022.03
2023-04-01T01:49:55.320Z,99012.66
2023-04-01T01:52:24.289Z,99012.00
2023-04-01T01:54:54.381Z,99030.81
2023-04-01T01:57:45.114Z,99030.31
2023-04-01T02:00:17.308Z,99027.63
2023-04-01T02:02:47.485Z,99024.38
2023-04-01T02:05:21.967Z,99036.19
2023-04-01T02:08:13.344Z,99044.47
2023-04-01T02:10:47.760Z,99041.56
2023-04-01T02:13:25.452Z,99048.22
2023-04-01T02:15:56.435Z,99057.81
2023-04-01T02:18:23.182Z,99054.31
2023-04-01T02:20:50.418Z,99058.63
2023-04-01T02:23:16.943Z,99057.47
2023-04-01T02:25:45.767Z,99066.34
2023-04-01T02:28:14.753Z,99066.59
2023-04-01T02:30:43.755Z,99068.22
2023-04-01T02:33:10.308Z,99075.56
2023-04-01T02:35:38.292Z,99084.00
2023-04-01T02:38:06.492Z,99084.81
2023-04-01T02:40:44.310Z,99080.03
2023-04-01T02:43:10.812Z,99080.84
2023-04-01T02:45:37.276Z,99086.34
2023-04-01T02:48:04.005Z,99092.78
2023-04-01T02:50:30.473Z,99097.72
2023-04-01T02:52:57.111Z,99106.34
2023-04-01T02:55:23.574Z,99107.97
2023-04-01T02:57:50.076Z,99105.28
2023-04-01T03:00:17.386Z,99111.25
2023-04-01T03:02:45.187Z,99115.00
2023-04-01T03:05:11.992Z,99115.47
2023-04-01T03:07:38.382Z,99125.63
2023-04-01T03:10:05.888Z,99110.81
2023-04-01T03:12:32.428Z,99132.75
2023-04-01T03:14:59.007Z,99123.44
2023-04-01T03:17:38.276Z,99134.19
2023-04-01T03:20:05.800Z,99144.56
2023-04-01T03:22:32.431Z,99147.25
2023-04-01T03:24:58.846Z,99146.66
2023-04-01T03:27:25.295Z,99148.88
2023-04-01T03:29:52.175Z,99160.69
2023-04-01T03:32:19.680Z,99163.38
2023-04-01T03:34:46.232Z,99171.84
2023-04-01T03:37:12.881Z,99185.47
2023-04-01T03:39:39.390Z,99177.41
2023-04-01T03:42:07.526Z,99189.47
2023-04-01T03:44:34.773Z,99186.16
2023-04-01T03:47:01.595Z,99193.66
2023-04-01T03:49:28.758Z,99196.91
2023-04-01T03:51:55.534Z,99201.50
2023-04-01T03:54:22.832Z,99205.44
2023-04-01T03:56:49.454Z,99206.03
2023-04-01T03:59:15.985Z,99219.25
2023-04-01T04:01:42.482Z,99221.47
2023-04-01T04:04:12.692Z,99222.28
2023-04-01T04:06:39.713Z,99219.03
2023-04-01T04:09:06.161Z,99225.81
2023-04-01T04:11:33.942Z,99237.84
2023-04-01T04:14:01.128Z,99237.25
2023-04-01T04:16:27.731Z,99240.75
2023-04-01T04:18:59.025Z,99241.38
2023-04-01T04:21:25.500Z,99248.38
2023-04-01T04:23:52.397Z,99250.25
2023-04-01T04:26:19.854Z,99264.09
2023-04-01T04:28:56.289Z,99257.50
2023-04-01T04:31:24.900Z,99268.47
2023-04-01T04:33:53.597Z,99267.28
2023-04-01T04:36:20.896Z,99270.78
2023-04-01T04:38:49.427Z,99266.47
2023-04-01T04:41:18.680Z,99282.25
2023-04-01T04:43:56.794Z,99284.94
2023-04-01T04:46:25.321Z,99291.38
2023-04-01T04:48:58.039Z,99288.69
2023-04-01T04:51:25.349Z,99297.56
2023-04-01T04:53:53.161Z,99300.25
2023-04-01T04:56:26.922Z,99307.50
2023-04-01T04:59:08.394Z,99308.19
2023-04-01T05:01:43.313Z,99312.28
2023-04-01T05:04:09.820Z,99312.28
2023-04-01T05:06:36.535Z,99320.00
2023-04-01T05:09:03.352Z,99326.19
2023-04-01T05:11:29.780Z,99330.75
2023-04-01T05:13:56.714Z,99331.56
2023-04-01T05:16:23.374Z,99339.25
2023-04-01T05:18:49.858Z,99338.44
2023-04-01T05:21:17.102Z,99337.84
2023-04-01T05:23:44.312Z,99345.09
2023-04-01T05:26:15.517Z,99348.81
2023-04-01T05:28:43.073Z,99350.25
2023-04-01T05:31:10.440Z,99351.28
2023-04-01T05:33:42.856Z,99360.41
2023-04-01T05:36:15.190Z,99366.81
2023-04-01T05:38:44.013Z,99368.31
2023-04-01T05:41:12.985Z,99366.69
2023-04-01T05:43:43.818Z,99366.69
2023-04-01T05:46:48.464Z,99379.66
2023-04-01T05:49:19.388Z,99378.84
2023-04-01T05:51:46.132Z,99388.09
2023-04-01T05:54:12.614Z,99397.34
2023-04-01T05:56:39.772Z,99395.03
2023-04-01T05:59:06.488Z,99396.91
2023-04-01T06:01:33.042Z,99406.03
2023-04-01T06:03:59.771Z,99407.06
2023-04-01T06:06:32.875Z,99412.09
2023-04-01T06:09:20.062Z,99410.03
2023-04-01T06:12:08.775Z,99414.41
2023-04-01T06:14:50.529Z,99417.47
2023-04-01T06:17:46.866Z,99431.78
2023-04-01T06:20:56.342Z,99430.00
2023-04-01T06:23:54.034Z,99438.66
2023-04-01T06:26:42.066Z,99445.66
2023-04-01T06:29:30.436Z,99445.66
2023-04-01T06:32:16.623Z,99441.94
2023-04-01T06:35:02.566Z,99449.53
2023-04-01T06:37:44.763Z,99451.41
2023-04-01T06:40:23.439Z,99463.91
2023-04-01T06:42:56.317Z,99468.84
2023-04-01T06:45:46.411Z,99473.16
2023-04-01T06:49:05.972Z,99484.50
2023-04-01T06:51:59.848Z,99484.34
2023-04-01T06:54:50.743Z,99494.28
2023-04-01T06:57:43.501Z,99495.72
2023-04-01T07:00:20.411Z,99498.03
2023-04-01T07:02:56.625Z,99502.13
2023-04-01T07:05:24.024Z,99503.78
2023-04-01T07:07:54.567Z,99504.38
2023-04-01T07:10:32.302Z,99506.91
2023-04-01T07:13:48.803Z,99524.44
2023-04-01T07:16:39.980Z,99526.47
2023-04-01T07:19:34.352Z,99527.44
2023-04-01T07:22:22.541Z,99531.56
2023-04-01T07:25:15.809Z,99540.66
2023-04-01T07:27:46.714Z,99543.56
2023-04-01T07:30:19.359Z,99551.88
2023-04-01T07:33:02.815Z,99549.78
2023-04-01T07:35:47.383Z,99556.78
2023-04-01T07:38:25.791Z,99561.97
2023-04-01T07:41:01.702Z,99561.97
2023-04-01T07:43:55.977Z,99564.56
2023-04-01T07:46:51.612Z,99575.25
2023-04-01T07:49:36.643Z,99571.31
2023-04-01T07:52:13.746Z,99569.44
2023-04-01T07:55:11.264Z,99579.16
2023-04-01T07:58:05.511Z,99589.25
2023-04-01T08:00:58.111Z,99593.81
2023-04-01T08:03:57.887Z,99595.06
2023-04-01T08:06:46.366Z,99600.44
2023-04-01T08:09:36.454Z,99601.66
2023-04-01T08:12:47.990Z,99606.59
2023-04-01T08:15:58.648Z,99610.94
2023-04-01T08:18:41.160Z,99621.78
2023-04-01T08:21:25.014Z,99619.66
2023-04-01T08:24:12.484Z,99632.13
2023-04-01T08:26:46.309Z,99631.47
2023-04-01T08:29:33.126Z,99630.66
2023-04-01T08:32:09.106Z,99643.06
2023-04-01T08:34:41.696Z,99640.38
2023-04-01T08:37:31.171Z,99646.50
2023-04-01T08:40:23.778Z,99655.84
2023-04-01T08:43:07.781Z,99648.38
2023-04-01T08:46:00.863Z,99657.84
2023-04-01T08:48:52.161Z,99654.72
2023-04-01T08:51:52.807Z,99666.69
2023-04-01T08:54:49.243Z,99673.28
2023-04-01T08:58:04.264Z,99671.41
2023-04-01T09:01:05.945Z,99678.44
2023-04-01T09:04:19.065Z,99681.78
2023-04-01T09:06:58.024Z,99675.38
2023-04-01T09:09:43.285Z,99684.03
2023-04-01T09:12:25.023Z,99683.59
2023-04-01T09:15:21.740Z,99689.13
2023-04-01T09:18:13.636Z,99696.09
2023-04-01T09:20:53.004Z,99695.22
2023-04-01T09:23:44.384Z,99697.69
2023-04-01T09:26:32.684Z,99702.63
2023-04-01T09:29:25.762Z,99707.53
2023-04-01T09:32:18.875Z,99703.97
2023-04-01T09:35:25.391Z,99705.41
2023-04-01T09:38:03.954Z,99716.97
2023-04-01T09:40:56.492Z,99714.06
2023-04-01T09:44:02.422Z,99726.25
2023-04-01T09:47:02.246Z,99729.78
2023-04-01T09:49:31.760Z,99733.34
2023-04-01T09:52:36.296Z,99729.69
2023-04-01T09:55:20.163Z,99732.75
2023-04-01T09:58:24.231Z,99742.25
2023-04-01T10:01:43.106Z,99748.81
2023-04-01T10:04:29.561Z,99747.50
2023-04-01T10:07:11.216Z,99758.03
2023-04-01T10:10:23.277Z,99761.84
2023-04-01T10:13:21.843Z,99761.69
2023-04-01T10:16:30.468Z,99773.22
2023-04-01T10:19:35.809Z,99768.44
2023-04-01T10:22:35.822Z,99774.19
2023-04-01T10:25:24.716Z,99775.16
2023-04-01T10:28:33.050Z,99782.38
2023-04-01T10:31:23.978Z,99775.41
2023-04-01T10:34:28.280Z,99779.91
2023-04-01T10:37:02.410Z,99779.06
2023-04-01T10:39:59.621Z,99787.28
2023-04-01T10:43:16.877Z,99784.31
2023-04-01T10:46:06.174Z,99785.50
2023-04-01T10:49:20.110Z,99789.75
2023-04-01T10:52:16.934Z,99792.88
2023-04-01T10:55:38.140Z,99789.06
2023-04-01T10:59:07.106Z,99793.75
2023-04-01T11:02:10.150Z,99799.34
2023-04-01T11:05:20.211Z,99804.28
2023-04-01T11:08:27.918Z,99811.94
2023-04-01T11:11:12.383Z,99809.69
2023-04-01T11:13:58.604Z,99815.31
2023-04-01T11:17:02.565Z,99821.28
2023-04-01T11:19:39.514Z,99828.16
2023-04-01T11:22:34.800Z,99829.72
2023-04-01T11:25:40.818Z,99830.38
2023-04-01T11:28:49.899Z,99843.28
2023-04-01T11:32:10.577Z,99845.16
2023-04-01T11:34:49.781Z,99855.47
2023-04-01T11:37:48.090Z,99847.94
2023-04-01T11:40:50.401Z,99853.69
2023-04-01T11:43:58.744Z,99866.94
2023-04-01T11:46:55.712Z,99865.69
2023-04-01T11:49:37.170Z,99869.88
2023-04-01T11:52:40.103Z,99870.09
2023-04-01T11:55:22.544Z,99878.63
2023-04-01T11:57:59.020Z,99884.41
2023-04-01T12:00:25.446Z,99887.81
2023-04-01T12:03:27.523Z,99891.38
2023-04-01T12:06:26.934Z,99890.91
2023-04-01T12:09:05.856Z,99898.78
2023-04-01T12:11:53.269Z,99900.97
2023-04-01T12:14:25.709Z,99916.09
2023-04-01T12:17:24.042Z,99903.22
2023-04-01T12:19:53.312Z,99908.63
2023-04-01T12:22:44.552Z,99911.31
2023-04-01T12:25:46.364Z,99920.47
2023-04-01T12:28:30.435Z,99928.00
2023-04-01T12:31:14.901Z,99926.31
2023-04-01T12:33:56.602Z,99937.34
2023-04-01T12:36:32.056Z,99939.44
2023-04-01T12:39:21.408Z,99932.41
2023-04-01T12:41:53.678Z,99945.44
2023-04-01T12:44:30.873Z,99948.34
2023-04-01T12:47:18.110Z,99947.31
2023-04-01T12:50:26.675Z,99947.91
2023-04-01T12:53:04.709Z,99956.44
2023-04-01T12:55:41.039Z,99959.59
2023-04-01T12:58:31.965Z,99964.75
2023-04-01T13:01:29.783Z,99964.38
2023-04-01T13:04:34.350Z,99978.66
2023-04-01T13:07:09.839Z,99983.91
2023-04-01T13:09:55.353Z,99985.56
2023-04-01T13:12:37.427Z,99988.53
2023-04-01T13:15:18.240Z,99987.78
2023-04-01T13:17:58.122Z,99986.34
2023-04-01T13:20:47.068Z,99989.03
2023-04-01T13:23:23.929Z,99997.38
2023-04-01T13:26:15.312Z,100001.06
2023-04-01T13:29:10.978Z,100009.56
2023-04-01T13:31:40.383Z,100010.16
2023-04-01T13:34:16.027Z,100016.03
2023-04-01T13:36:57.239Z,100035.56
2023-04-01T13:39:38.178Z,100031.66
2023-04-01T13:42:25.877Z,100028.75
2023-04-01T13:45:20.582Z,100033.53
2023-04-01T13:47:57.987Z,100037.00
2023-04-01T13:50:39.942Z,100045.94
2023-04-01T13:53:27.925Z,100046.03
2023-04-01T13:56:16.139Z,100041.66
2023-04-01T13:58:51.713Z,100054.69
2023-04-01T14:01:45.087Z,100060.50
2023-04-01T14:04:36.127Z,100062.44
2023-04-01T14:07:19.974Z,100070.56
2023-04-01T14:10:23.968Z,100071.22
2023-04-01T14:13:04.105Z,100074.09
2023-04-01T14:15:42.736Z,100078.91
2023-04-01T14:18:34.304Z,100092.38
2023-04-01T14:21:19.921Z,100094.22
2023-04-01T14:24:21.175Z,100094.19
2023-04-01T14:27:06.448Z,100100.81
2023-04-01T14:29:58.073Z,100106.81
2023-04-01T14:32:29.583Z,100109.97
2023-04-01T14:35:01.259Z,100114.72
2023-04-01T14:37:38.282Z,100113.91
2023-04-01T14:40:39.651Z,100120.75
2023-04-01T14:43:27.971Z,100127.38
2023-04-01T14:46:08.141Z,100126.16
2023-04-01T14:48:40.911Z,100136.28
2023-04-01T14:51:17.600Z,100145.03
2023-04-01T14:54:09.690Z,100147.28
2023-04-01T14:56:43.653Z,100155.19
2023-04-01T14:59:28.356Z,100160.00
2023-04-01T15:02:27.345Z,100152.97
2023-04-01T15:05:32.258Z,100162.47
2023-04-01T15:08:13.681Z,100163.50
2023-04-01T15:10:53.344Z,100182.59
2023-04-01T15:13:40.200Z,100172.25
2023-04-01T15:16:24.450Z,100188.00
2023-04-01T15:19:24.204Z,100191.31
2023-04-01T15:22:26.205Z,100196.50
2023-04-01T15:25:21.004Z,100206.63
2023-04-01T15:27:56.628Z,100209.91
2023-04-01T15:30:30.719Z,100221.31
2023-04-01T15:33:29.287Z,100220.91
2023-04-01T15:35:59.588Z,100235.59
2023-04-01T15:38:49.479Z,100233.13
2023-04-01T15:41:21.736Z,100237.69
2023-04-01T15:43:50.535Z,100242.03
2023-04-01T15:46:47.513Z,100254.03
2023-04-01T15:49:16.682Z,100254.66
2023-04-01T15:52:15.692Z,100259.22
2023-04-01T15:54:51.226Z,100265.00
2023-04-01T15:57:31.446Z,100264.78
2023-04-01T16:00:07.164Z,100278.25
2023-04-01T16:02:53.446Z,100281.34
2023-04-01T16:05:42.366Z,100289.88
2023-04-01T16:08:41.747Z,100295.66
2023-04-01T16:11:17.843Z,100296.69
2023-04-01T16:14:12.116Z,100309.72
2023-04-01T16:16:53.481Z,100305.59
2023-04-01T16:19:37.103Z,100308.47
2023-04-01T16:22:19.812Z,100316.97
2023-04-01T16:25:28.651Z,100321.50
2023-04-01T16:28:09.577Z,100329.81
2023-04-01T16:30:39.647Z,100337.06
2023-04-01T16:33:43.247Z,100334.13
2023-04-01T16:36:31.390Z,100343.25
2023-04-01T16:39:33.758Z,100347.59
2023-04-01T16:42:20.542Z,100355.25
2023-04-01T16:45:09.246Z,100363.09
2023-04-01T16:47:50.499Z,100374.44
2023-04-01T16:50:30.276Z,100379.63
2023-04-01T16:53:25.363Z,100377.69
2023-04-01T16:56:11.635Z,100393.22
2023-04-01T16:58:43.685Z,100402.06
2023-04-01T17:01:37.116Z,100394.59
2023-04-01T17:04:32.176Z,100414.25
2023-04-01T17:07:12.863Z,100413.84
2023-04-01T17:10:07.445Z,100419.63
2023-04-01T17:12:40.839Z,100424.78
2023-04-01T17:15:44.262Z,100432.41
2023-04-01T17:18:50.467Z,100443.16
2023-04-01T17:21:46.317Z,100454.34
2023-04-01T17:24:27.972Z,100461.56
2023-04-01T17:27:13.234Z,100470.47
2023-04-01T17:30:04.435Z,100471.09
2023-04-01T17:32:46.530Z,100480.41
2023-04-01T17:35:20.308Z,100475.44
2023-04-01T17:38:02.995Z,100496.91
2023-04-01T17:40:38.713Z,100494.22
2023-04-01T17:43:20.520Z,100514.63
2023-04-01T17:45:59.029Z,100518.81
2023-04-01T17:48:34.322Z,100520.47
2023-04-01T17:51:29.983Z,100526.88
2023-04-01T17:54:28.372Z,100526.66
2023-04-01T17:57:26.187Z,100545.47
2023-04-01T18:00:13.725Z,100539.41
2023-04-01T18:02:53.167Z,100547.69
2023-04-01T18:05:50.706Z,100555.75
2023-04-01T18:08:36.662Z,100563.50
2023-04-01T18:11:21.885Z,100576.50
2023-04-01T18:14:00.611Z,100572.16
2023-04-01T18:16:46.213Z,100589.94
2023-04-01T18:19:23.002Z,100601.31
2023-04-01T18:21:54.507Z,100595.31
2023-04-01T18:24:28.814Z,100607.09
2023-04-01T18:27:13.062Z,100609.91
2023-04-01T18:29:49.341Z,100616.28
2023-04-01T18:32:29.905Z,100619.41
2023-04-01T18:35:14.783Z,100640.06
2023-04-01T18:37:53.961Z,100645.56
2023-04-01T18:40:35.602Z,100655.41
2023-04-01T18:43:31.941Z,100657.84
2023-04-01T18:46:02.863Z,100661.00
2023-04-01T18:48:57.300Z,100669.31
2023-04-01T18:51:39.989Z,100674.09
2023-04-01T18:55:05.727Z,100687.34
2023-04-01T18:57:51.301Z,100695.47
2023-04-01T19:00:23.323Z,100700.94
2023-04-01T19:03:00.030Z,100703.19
2023-04-01T19:05:37.630Z,100721.53
2023-04-01T19:08:34.513Z,100715.44
2023-04-01T19:11:11.409Z,100729.00
2023-04-01T19:13:44.166Z,100732.44
2023-04-01T19:16:13.579Z,100731.22
2023-04-01T19:18:52.276Z,100744.66
2023-04-01T19:21:34.951Z,100744.66
2023-04-01T19:24:39.560Z,100760.59
2023-04-01T19:27:27.564Z,100767.88
2023-04-01T19:30:12.690Z,100775.22
2023-04-01T19:32:54.211Z,100771.69
2023-04-01T19:35:46.741Z,100779.09
2023-04-01T19:38:22.050Z,100786.88
2023-04-01T19:41:24.423Z,100794.53
2023-04-01T19:44:03.552Z,100801.56
2023-04-01T19:46:36.544Z,100807.00
2023-04-01T19:49:36.933Z,100807.53
2023-04-01T19:52:28.581Z,100819.75
2023-04-01T19:55:19.546Z,100825.19
2023-04-01T19:57:56.040Z,100833.59
2023-04-01T20:00:49.687Z,100832.78
2023-04-01T20:03:35.038Z,100838.44
2023-04-01T20:06:05.186Z,100857.72
2023-04-01T20:08:41.951Z,100857.38
2023-04-01T20:11:24.224Z,100859.72
2023-04-01T20:13:59.593Z,100867.78
2023-04-01T20:16:49.691Z,100873.81
2023-04-01T20:19:30.048Z,100864.41
2023-04-01T20:22:00.585Z,100874.50
2023-04-01T20:24:36.318Z,100888.88
2023-04-01T20:27:18.073Z,100904.19
2023-04-01T20:30:14.030Z,100897.25
2023-04-01T20:32:59.247Z,100915.72
2023-04-01T20:35:43.968Z,100910.03
2023-04-01T20:38:26.675Z,100918.50
2023-04-01T20:41:33.760Z,100929.72
2023-04-01T20:44:12.919Z,100930.94
2023-04-01T20:46:39.229Z,100936.09
2023-04-01T20:49:31.322Z,100957.75
2023-04-01T20:52:17.891Z,100958.13
2023-04-01T20:55:09.260Z,100974.75
2023-04-01T20:58:06.834Z,100978.25
2023-04-01T21:01:17.486Z,100978.06
2023-04-01T21:04:14.280Z,100985.81
2023-04-01T21:06:49.030Z,100982.47
2023-04-01T21:09:33.854Z,101001.09
2023-04-01T21:12:22.831Z,100999.09
2023-04-01T21:15:08.897Z,100994.75
2023-04-01T21:18:12.827Z,101007.13
2023-04-01T21:21:08.228Z,101011.66
2023-04-01T21:23:54.357Z,101020.41
2023-04-01T21:26:43.860Z,101021.06
2023-04-01T21:29:42.328Z,101029.44
2023-04-01T21:32:18.701Z,101036.31
2023-04-01T21:34:56.126Z,101044.16
2023-04-01T21:37:56.140Z,101053.22
2023-04-01T21:40:44.568Z,101053.88
2023-04-01T21:43:32.748Z,101061.09
2023-04-01T21:46:32.310Z,101060.75
2023-04-01T21:49:33.632Z,101068.78
2023-04-01T21:52:36.806Z,101059.41
2023-04-01T21:55:21.465Z,101072.78
2023-04-01T21:58:06.857Z,101077.34
2023-04-01T22:00:39.155Z,101074.84
2023-04-01T22:03:27.889Z,101090.59
2023-04-01T22:06:27.920Z,101089.25
2023-04-01T22:08:54.258Z,101099.59
2023-04-01T22:12:05.368Z,101106.47
2023-04-01T22:14:44.560Z,101109.97
2023-04-01T22:17:30.350Z,101108.97
2023-04-01T22:20:31.439Z,101124.91
2023-04-01T22:23:40.504Z,101128.41
2023-04-01T22:26:32.525Z,101137.47
2023-04-01T22:29:07.664Z,101138.44
2023-04-01T22:32:04.408Z,101144.31
2023-04-01T22:34:40.018Z,101146.16
2023-04-01T22:37:18.132Z,101141.13
2023-04-01T22:39:47.279Z,101147.50
2023-04-01T22:42:25.297Z,101158.88
2023-04-01T22:45:29.902Z,101165.91
2023-04-01T22:48:26.396Z,101164.88
2023-04-01T22:51:20.544Z,101175.09
2023-04-01T22:53:52.531Z,101175.28
2023-04-01T22:56:35.648Z,101184.16
2023-04-01T22:59:23.684Z,101187.34
2023-04-01T23:02:12.630Z,101203.06
2023-04-01T23:04:43.214Z,101191.84
2023-04-01T23:07:37.943Z,101203.88
2023-04-01T23:10:13.297Z,101210.41
2023-04-01T23:12:41.907Z,101204.38
2023-04-01T23:15:14.683Z,101208.03
2023-04-01T23:17:53.618Z,101214.91
2023-04-01T23:20:57.605Z,101232.94
2023-04-01T23:23:31.337Z,101238.44
2023-04-01T23:26:11.251Z,101241.91
2023-04-01T23:28:47.928Z,101245.44
2023-04-01T23:31:45.646Z,101249.13
2023-04-01T23:34:12.106Z,101251.97
2023-04-01T23:36:42.363Z,101256.34
2023-04-01T23:39:31.859Z,101261.22
2023-04-01T23:42:06.515Z,101262.56
2023-04-01T23:44:34.675Z,101272.44
2023-04-01T23:47:03.986Z,101272.94
2023-04-01T23:49:56.279Z,101277.44
2023-04-01T23:52:27.113Z,101285.63
2023-04-01T23:55:00.787Z,101283.47
2023-04-01T23:57:32.777Z,101289.63
